Time;durP1;ratioP1;P1;durP2;ratioP2;P2;SDS_P1;SDS_P2;PMS_P1;PMS_P2;Temp;Humidity;BMP_temperature;BMP_pressure;BME280_temperature;BME280_humidity;BME280_pressure;Samples;Min_cycle;Max_cycle;Signal;HPM_P1;HPM_P2
2021/10/12 00:00:19;;;;;;;11.03;5.70;;;;;;;9.23;96.62;102312.16;2106542;28;20024;-67
2021/10/12 00:01:20;;;;;;;12.27;5.43;;;;;;;9.23;97.15;102317.38;2106799;28;20028;-67
2021/10/12 00:02:20;;;;;;;11.63;4.50;;;;;;;9.22;96.71;102318.28;2106702;28;20024;-66
2021/10/12 00:03:20;;;;;;;8.57;4.73;;;;;;;9.21;97.05;102313.91;2106793;28;20042;-67
2021/10/12 00:04:20;;;;;;;8.13;4.23;;;;;;;9.21;97.12;102306.09;2107347;28;20406;-68
2021/10/12 00:05:21;;;;;;;15.43;5.60;;;;;;;9.22;96.90;102309.59;2107308;28;20448;-66
2021/10/12 00:06:21;;;;;;;14.23;5.40;;;;;;;9.23;97.15;102312.16;2107435;28;20366;-66
2021/10/12 00:07:21;;;;;;;14.80;5.73;;;;;;;9.24;96.83;102315.66;2107344;28;20036;-66
2021/10/12 00:08:22;;;;;;;15.73;5.72;;;;;;;9.23;96.85;102301.75;2106596;28;20074;-66
2021/10/12 00:09:22;;;;;;;8.87;4.73;;;;;;;9.23;96.78;102309.56;2098178;28;20475;-68
2021/10/12 00:10:22;;;;;;;6.50;4.10;;;;;;;9.23;97.16;102304.34;2106683;28;20020;-66
2021/10/12 00:11:23;;;;;;;9.83;5.10;;;;;;;9.23;97.17;102306.97;2107257;28;20084;-66
2021/10/12 00:12:23;;;;;;;11.77;4.60;;;;;;;9.23;97.22;102306.97;2107278;28;20036;-67
2021/10/12 00:13:23;;;;;;;13.33;5.37;;;;;;;9.22;96.94;102301.75;2107248;28;20020;-66
2021/10/12 00:14:23;;;;;;;8.90;5.37;;;;;;;9.22;96.92;102300.03;2107371;28;20371;-67
2021/10/12 00:15:24;;;;;;;10.17;3.57;;;;;;;9.23;96.52;102300.88;2107615;28;20039;-67
2021/10/12 00:16:24;;;;;;;10.73;4.80;;;;;;;9.20;96.44;102301.78;2107222;28;20100;-66
2021/10/12 00:17:25;;;;;;;9.60;4.07;;;;;;;9.20;96.75;102296.56;2107551;28;20500;-67
2021/10/12 00:18:25;;;;;;;12.05;5.47;;;;;;;9.21;96.82;102300.91;2107215;28;20098;-67
2021/10/12 00:19:25;;;;;;;13.00;5.90;;;;;;;9.18;96.75;102303.56;2107135;28;20084;-67
2021/10/12 00:20:26;;;;;;;12.85;6.30;;;;;;;9.20;96.92;102300.94;2107381;28;20023;-66
2021/10/12 00:21:26;;;;;;;10.27;5.97;;;;;;;9.18;97.05;102298.34;2107247;28;20036;-67
2021/10/12 00:22:26;;;;;;;8.97;5.77;;;;;;;9.18;96.96;102300.97;2107324;28;20024;-67
2021/10/12 00:23:27;;;;;;;9.70;5.67;;;;;;;9.18;96.77;102298.34;2107220;28;20031;-67
2021/10/12 00:24:27;;;;;;;16.27;7.07;;;;;;;9.20;96.63;102295.72;2107375;28;20028;-67
2021/10/12 00:25:27;;;;;;;10.87;6.13;;;;;;;9.17;96.51;102291.41;2107388;28;20590;-65
2021/10/12 00:26:27;;;;;;;8.93;6.30;;;;;;;9.15;96.45;102295.78;2107300;28;20028;-68
2021/10/12 00:27:28;;;;;;;9.97;6.57;;;;;;;9.16;96.69;102300.09;2107510;28;20477;-67
2021/10/12 00:28:28;;;;;;;9.07;6.97;;;;;;;9.14;97.13;102302.72;2107322;28;20074;-67
2021/10/12 00:29:29;;;;;;;12.43;6.47;;;;;;;9.13;96.46;102297.53;2107310;28;20027;-66
2021/10/12 00:30:29;;;;;;;13.00;7.33;;;;;;;9.12;97.12;102298.41;2107311;28;20020;-67
2021/10/12 00:31:30;;;;;;;10.90;6.40;;;;;;;9.12;96.74;102299.28;2107465;28;20020;-67
2021/10/12 00:32:30;;;;;;;9.97;6.00;;;;;;;9.13;97.25;102300.13;2107267;28;20102;-67
2021/10/12 00:33:32;;;;;;;17.20;6.50;;;;;;;9.11;97.06;102297.53;2107051;28;20020;-67
2021/10/12 00:34:32;;;;;;;9.93;6.00;;;;;;;9.11;96.91;102297.53;2107150;28;20385;-67
2021/10/12 00:35:32;;;;;;;10.93;7.00;;;;;;;9.12;96.84;102296.69;2107232;28;20059;-67
2021/10/12 00:36:32;;;;;;;9.90;6.23;;;;;;;9.13;97.16;102297.53;2107174;28;20069;-67
2021/10/12 00:37:33;;;;;;;12.67;6.03;;;;;;;9.11;96.71;102294.94;2107468;28;20055;-67
2021/10/12 00:38:33;;;;;;;14.83;6.00;;;;;;;9.10;96.94;102292.38;2107236;28;20055;-66
2021/10/12 00:39:33;;;;;;;14.23;6.50;;;;;;;9.09;97.06;102288.03;2107440;28;20035;-67
2021/10/12 00:40:37;;;;;;;10.57;6.27;;;;;;;9.08;96.94;102286.31;2107558;28;20468;-67
2021/10/12 00:41:38;;;;;;;10.07;5.60;;;;;;;9.08;97.05;102291.53;2106832;28;20024;-67
2021/10/12 00:42:38;;;;;;;;;;;;;;;9.07;96.84;102289.81;2107437;28;20028;-67
2021/10/12 00:43:39;;;;;;;10.27;6.07;;;;;;;9.06;97.01;102288.09;2107456;28;19915;-67
2021/10/12 00:44:39;;;;;;;9.13;6.23;;;;;;;9.07;97.40;102295.03;2107341;28;20281;-66
2021/10/12 00:45:41;;;;;;;14.87;6.80;;;;;;;9.05;97.01;102291.56;2107216;28;20534;-66
2021/10/12 00:46:41;;;;;;;8.95;6.28;;;;;;;9.05;97.07;102287.22;2107380;28;20307;-66
2021/10/12 00:48:14;;;;;;;9.10;5.80;;;;;;;9.04;96.73;102284.63;2107517;28;20106;-66
2021/10/12 00:49:14;;;;;;;8.05;5.80;;;;;;;9.01;97.02;102288.16;2064899;28;20097;-68
2021/10/12 00:50:15;;;;;;;14.20;5.77;;;;;;;9.00;96.95;102284.66;2087597;28;20040;-69
2021/10/12 00:51:15;;;;;;;14.97;6.70;;;;;;;9.01;97.07;102281.19;2106583;28;20020;-65
2021/10/12 00:52:15;;;;;;;15.07;6.13;;;;;;;9.01;97.09;102283.78;2106435;28;20075;-67
2021/10/12 00:53:16;;;;;;;14.37;7.70;;;;;;;9.00;96.83;102284.66;2098176;28;20040;-66
2021/10/12 00:54:17;;;;;;;11.55;6.15;;;;;;;9.00;97.12;102274.25;2106505;28;20150;-66
2021/10/12 00:55:17;;;;;;;13.07;4.63;;;;;;;9.00;97.13;102279.47;2106962;28;20027;-66
2021/10/12 00:56:19;;;;;;;10.27;5.70;;;;;;;9.01;97.11;102275.13;2106963;28;20035;-67
2021/10/12 00:57:19;;;;;;;8.70;6.25;;;;;;;9.01;97.29;102270.75;2107255;28;20534;-66
2021/10/12 00:58:20;;;;;;;8.20;5.90;;;;;;;8.99;96.69;102267.34;2106708;28;20058;-66
2021/10/12 00:59:20;;;;;;;14.63;7.13;;;;;;;9.01;97.00;102270.75;2106432;28;20103;-66
2021/10/12 01:00:21;;;;;;;13.17;6.70;;;;;;;9.01;97.04;102270.75;2106419;28;20027;-68
2021/10/12 01:01:22;;;;;;;;;;;;;;;9.03;97.00;102268.16;2107288;28;20477;-66
2021/10/12 01:02:22;;;;;;;11.50;5.72;;;;;;;9.00;96.79;102266.44;2106722;28;19912;-66
2021/10/12 01:03:22;;;;;;;9.07;5.93;;;;;;;9.02;97.03;102263.81;2107309;28;20485;-67
2021/10/12 01:04:23;;;;;;;9.50;5.33;;;;;;;9.02;97.00;102256.88;2106877;28;20027;-69
2021/10/12 01:05:23;;;;;;;14.00;6.55;;;;;;;9.02;97.25;102256.88;2106786;28;20024;-67
2021/10/12 01:06:24;;;;;;;6.80;5.20;;;;;;;9.02;96.70;102254.28;2107062;28;20035;-67
2021/10/12 01:07:24;;;;;;;14.90;7.17;;;;;;;9.02;96.73;102253.41;2107026;28;20481;-67
2021/10/12 01:08:24;;;;;;;17.70;7.27;;;;;;;9.02;96.48;102251.69;2107109;28;20071;-66
2021/10/12 01:09:25;;;;;;;11.43;6.13;;;;;;;9.00;96.81;102243.00;2106324;28;20028;-67
2021/10/12 01:10:25;;;;;;;10.57;5.00;;;;;;;9.02;96.65;102246.47;2106283;28;20766;-68
2021/10/12 01:11:26;;;;;;;10.63;6.10;;;;;;;9.02;96.85;102243.00;2107265;28;20781;-66
2021/10/12 01:12:27;;;;;;;12.40;6.88;;;;;;;9.03;96.70;102242.09;2107258;28;20032;-66
2021/10/12 01:13:27;;;;;;;10.20;6.30;;;;;;;9.00;96.84;102243.00;2106536;28;20024;-66
2021/10/12 01:14:27;;;;;;;8.63;6.27;;;;;;;8.99;96.91;102243.91;2106342;28;20024;-67
2021/10/12 01:15:30;;;;;;;9.10;6.40;;;;;;;8.99;96.89;102240.41;2107316;28;20414;-68
2021/10/12 01:16:31;;;;;;;10.52;5.60;;;;;;;8.99;96.96;102245.63;2107175;28;20026;-67
2021/10/12 01:17:31;;;;;;;11.52;7.07;;;;;;;8.97;97.02;102240.44;2107068;28;20011;-67
2021/10/12 01:18:31;;;;;;;14.00;5.83;;;;;;;8.97;97.10;102240.44;2107239;28;20024;-67
2021/10/12 01:19:34;;;;;;;14.80;6.40;;;;;;;8.97;96.46;102237.84;2106476;28;20110;-67
2021/10/12 01:20:37;;;;;;;10.68;5.80;;;;;;;8.96;96.67;102230.91;2106589;28;20412;-66
2021/10/12 01:21:40;;;;;;;9.45;6.32;;;;;;;8.96;96.48;102236.13;2107065;28;20020;-66
2021/10/12 01:22:43;;;;;;;9.18;5.70;;;;;;;8.96;96.62;102236.13;2107263;28;20036;-66
2021/10/12 01:23:43;;;;;;;11.25;6.78;;;;;;;8.96;96.69;102228.31;2107178;28;20054;-66
2021/10/12 01:24:43;;;;;;;9.30;6.67;;;;;;;8.96;96.66;102230.91;2106367;28;20038;-66
2021/10/12 01:25:44;;;;;;;9.83;6.47;;;;;;;8.95;96.37;102231.81;2106434;28;20023;-66
2021/10/12 01:26:44;;;;;;;8.60;6.40;;;;;;;8.95;96.55;102229.19;2106472;28;20066;-66
2021/10/12 01:27:45;;;;;;;9.85;5.80;;;;;;;8.95;96.41;102234.41;2098051;28;20036;-67
2021/10/12 01:28:45;;;;;;;12.67;6.03;;;;;;;8.94;96.31;102232.69;2106545;28;20039;-66
2021/10/12 01:29:45;;;;;;;13.37;6.53;;;;;;;8.96;96.44;102235.28;2106276;28;20017;-66
2021/10/12 01:30:46;;;;;;;8.43;5.53;;;;;;;8.93;96.35;102228.34;2106477;28;20483;-66
2021/10/12 01:31:46;;;;;;;14.25;7.07;;;;;;;8.94;96.43;102224.88;2107049;28;20043;-66
2021/10/12 01:32:46;;;;;;;11.23;5.90;;;;;;;8.93;96.14;102225.75;2106301;28;20035;-66
2021/10/12 01:33:47;;;;;;;14.40;6.10;;;;;;;8.93;96.17;102225.75;2106304;28;20882;-67
2021/10/12 01:34:47;;;;;;;8.57;5.63;;;;;;;8.93;96.59;102228.34;2106821;28;20074;-66
2021/10/12 01:35:51;;;;;;;13.53;5.97;;;;;;;8.94;96.63;102232.69;2106993;28;20032;-67
2021/10/12 01:36:52;;;;;;;13.82;6.38;;;;;;;8.94;96.45;102232.69;2106229;28;20032;-67
2021/10/12 01:37:52;;;;;;;10.73;6.00;;;;;;;8.94;96.75;102232.69;2106531;28;20032;-67
2021/10/12 01:38:52;;;;;;;11.17;6.23;;;;;;;8.94;96.42;102235.28;2106127;28;20024;-68
2021/10/12 01:39:53;;;;;;;11.73;5.80;;;;;;;8.95;96.43;102233.53;2097922;28;20120;-67
2021/10/12 01:40:53;;;;;;;12.50;6.73;;;;;;;8.95;96.43;102241.34;2106213;28;20067;-66
2021/10/12 01:41:53;;;;;;;9.93;6.07;;;;;;;8.96;96.25;102235.28;2106841;28;20478;-67
2021/10/12 01:42:57;;;;;;;9.27;5.73;;;;;;;8.96;96.08;102233.50;2106211;28;20081;-66
2021/10/12 01:43:58;;;;;;;10.77;5.35;;;;;;;8.95;96.24;102231.81;2106354;28;20492;-67
2021/10/12 01:45:00;;;;;;;11.53;5.93;;;;;;;8.95;96.72;102234.41;2106931;28;20032;-66
2021/10/12 01:46:02;;;;;;;13.25;6.93;;;;;;;8.94;96.86;102226.63;2106884;28;20055;-66
2021/10/12 01:47:03;;;;;;;8.50;5.78;;;;;;;8.92;96.57;102224.03;2106034;28;20119;-67
2021/10/12 01:48:04;;;;;;;8.97;6.07;;;;;;;8.92;96.46;102224.03;2106159;28;20024;-66
2021/10/12 01:49:05;;;;;;;17.33;6.03;;;;;;;8.92;96.55;102221.41;2106895;28;20521;-66
2021/10/12 01:50:08;;;;;;;9.73;6.28;;;;;;;8.93;96.76;102220.53;2106643;28;20028;-66
2021/10/12 01:51:08;;;;;;;10.88;6.75;;;;;;;8.94;96.64;102227.47;2106575;28;20024;-66
2021/10/12 01:52:13;;;;;;;7.70;5.70;;;;;;;8.94;96.27;102217.06;2106830;28;20530;-66
2021/10/12 01:53:13;;;;;;;11.40;6.07;;;;;;;8.93;96.53;102217.94;2106773;28;20047;-67
2021/10/12 01:54:22;;;;;;;12.40;6.10;;;;;;;8.94;96.25;102222.28;2106096;28;20061;-66
2021/10/12 01:55:23;;;;;;;9.40;5.47;;;;;;;8.94;96.81;102211.00;2106234;28;20020;-68
2021/10/12 01:56:23;;;;;;;9.95;6.25;;;;;;;8.95;96.96;102207.50;2106913;28;20533;-67
2021/10/12 01:57:24;;;;;;;7.30;5.50;;;;;;;8.94;96.92;102206.66;2106846;28;19912;-67
2021/10/12 01:58:24;;;;;;;11.60;6.30;;;;;;;8.94;96.73;102201.44;2106173;28;20047;-68
2021/10/12 01:59:24;;;;;;;11.07;5.97;;;;;;;8.95;96.21;102197.94;2097759;28;20119;-68
2021/10/12 02:00:24;;;;;;;16.77;6.17;;;;;;;8.96;96.55;102199.66;2106057;28;20036;-67
2021/10/12 02:01:25;;;;;;;13.60;5.03;;;;;;;8.94;96.35;102201.44;2105922;28;20024;-67
2021/10/12 02:02:25;;;;;;;10.83;5.73;;;;;;;8.94;96.50;102195.38;2106473;28;20024;-67
2021/10/12 02:03:25;;;;;;;8.53;5.27;;;;;;;8.94;96.66;102196.25;2106535;28;20375;-67
2021/10/12 02:04:26;;;;;;;12.43;4.53;;;;;;;8.94;96.17;102196.25;2106618;28;20050;-66
2021/10/12 02:05:26;;;;;;;8.47;5.50;;;;;;;8.93;96.59;102189.28;2106648;28;20024;-66
2021/10/12 02:06:26;;;;;;;9.43;5.57;;;;;;;8.93;96.44;102193.66;2105870;28;20072;-68
2021/10/12 02:07:27;;;;;;;8.97;5.53;;;;;;;8.93;96.68;102184.09;2106337;28;20024;-66
2021/10/12 02:08:27;;;;;;;11.47;6.37;;;;;;;8.94;96.49;102185.81;2106505;28;20384;-67
2021/10/12 02:09:27;;;;;;;8.23;5.93;;;;;;;8.94;96.32;102193.63;2105874;28;20076;-67
2021/10/12 02:10:27;;;;;;;7.70;5.33;;;;;;;8.95;96.41;102187.53;2106349;28;20020;-66
2021/10/12 02:11:28;;;;;;;7.77;5.60;;;;;;;8.95;96.43;102190.16;2106845;28;20039;-68
2021/10/12 02:12:30;;;;;;;7.40;5.50;;;;;;;8.94;96.06;102184.94;2106750;28;20032;-66
2021/10/12 02:13:30;;;;;;;15.60;6.32;;;;;;;8.96;96.22;102188.41;2106680;28;20282;-67
2021/10/12 02:14:30;;;;;;;10.77;6.10;;;;;;;8.94;96.28;102185.81;2106778;28;20020;-68
2021/10/12 02:15:30;;;;;;;9.63;5.00;;;;;;;8.95;96.04;102176.25;2106764;28;20020;-67
2021/10/12 02:16:31;;;;;;;10.10;4.90;;;;;;;8.91;96.24;102167.63;2106585;28;20027;-67
2021/10/12 02:17:31;;;;;;;14.60;6.13;;;;;;;8.94;95.92;102169.34;2106691;28;20011;-67
2021/10/12 02:18:31;;;;;;;10.07;5.10;;;;;;;8.92;95.88;102161.53;2105861;28;20012;-68
2021/10/12 02:19:32;;;;;;;10.83;6.07;;;;;;;8.90;96.19;102168.53;2097359;28;20461;-66
2021/10/12 02:20:32;;;;;;;6.57;4.68;;;;;;;8.90;96.12;102168.53;2106150;28;20023;-67
2021/10/12 02:21:33;;;;;;;6.53;4.80;;;;;;;8.90;96.08;102168.53;2106834;28;20035;-67
2021/10/12 02:22:33;;;;;;;15.40;7.70;;;;;;;8.91;95.97;102170.25;2106663;28;20035;-67
2021/10/12 02:23:33;;;;;;;13.03;5.63;;;;;;;8.91;95.97;102164.16;2106041;28;20102;-67
2021/10/12 02:24:34;;;;;;;14.50;6.20;;;;;;;8.89;95.67;102167.66;2106098;28;20387;-66
2021/10/12 02:25:34;;;;;;;8.80;5.73;;;;;;;8.88;96.05;102167.69;2106549;28;20477;-67
2021/10/12 02:26:34;;;;;;;9.30;5.07;;;;;;;8.90;95.71;102168.53;2105796;28;20052;-66
2021/10/12 02:27:35;;;;;;;9.07;5.00;;;;;;;8.90;95.90;102168.53;2105684;28;20093;-68
2021/10/12 02:28:35;;;;;;;8.40;3.43;;;;;;;8.90;96.06;102163.31;2105549;28;20128;-66
2021/10/12 02:29:35;;;;;;;10.67;4.70;;;;;;;8.91;95.55;102170.25;2105723;28;20282;-67
2021/10/12 02:30:36;;;;;;;7.30;3.77;;;;;;;8.93;95.54;102168.47;2106297;28;20044;-66
2021/10/12 02:31:36;;;;;;;7.60;4.03;;;;;;;8.95;95.57;102164.09;2106151;28;20024;-66
2021/10/12 02:32:37;;;;;;;12.57;3.87;;;;;;;8.96;95.29;102168.44;2105602;28;20018;-68
2021/10/12 02:33:37;;;;;;;7.80;3.70;;;;;;;8.98;94.84;102165.81;2097093;28;20107;-68
2021/10/12 02:34:37;;;;;;;11.38;5.03;;;;;;;9.02;94.83;102167.47;2097423;28;20171;-67
2021/10/12 02:35:38;;;;;;;7.23;3.20;;;;;;;9.05;95.07;102163.97;2105611;28;20020;-66
2021/10/12 02:36:38;;;;;;;12.57;3.97;;;;;;;9.02;95.14;102163.13;2106278;28;20073;-67
2021/10/12 02:37:38;;;;;;;10.20;3.57;;;;;;;9.01;94.95;102166.59;2105624;28;20020;-68
2021/10/12 02:38:40;;;;;;;12.03;3.43;;;;;;;9.00;95.17;102164.06;2105815;28;20493;-67
2021/10/12 02:39:40;;;;;;;7.90;3.83;;;;;;;9.01;95.28;102161.41;2105495;28;20016;-67
2021/10/12 02:40:41;;;;;;;7.47;3.35;;;;;;;9.02;95.07;102168.34;2105794;28;20489;-68
2021/10/12 02:41:41;;;;;;;13.13;4.43;;;;;;;9.04;95.09;102164.84;2105489;28;20063;-68
2021/10/12 02:42:42;;;;;;;17.57;3.33;;;;;;;9.04;94.82;102159.66;2105490;28;20285;-68
2021/10/12 02:43:42;;;;;;;10.63;3.53;;;;;;;9.04;94.69;102160.53;2105695;28;20059;-67
2021/10/12 02:44:42;;;;;;;8.33;3.63;;;;;;;9.05;94.80;102157.03;2105420;28;20028;-68
2021/10/12 02:45:43;;;;;;;13.88;4.72;;;;;;;9.09;94.75;102163.03;2105804;28;20100;-69
2021/10/12 02:46:43;;;;;;;10.10;3.00;;;;;;;9.08;94.75;102156.09;2106539;28;20019;-68
2021/10/12 02:47:43;;;;;;;6.97;2.53;;;;;;;9.08;94.58;102161.31;2106642;28;20103;-69
2021/10/12 02:48:44;;;;;;;6.27;3.07;;;;;;;9.08;94.83;102161.31;2106510;28;20427;-67
2021/10/12 02:49:45;;;;;;;7.40;2.93;;;;;;;9.08;94.93;102158.72;2106374;28;20012;-68
2021/10/12 02:50:47;;;;;;;9.45;3.95;;;;;;;9.08;94.79;102166.53;2105489;28;20031;-67
2021/10/12 02:51:47;;;;;;;8.95;3.88;;;;;;;9.07;94.45;102150.03;2105395;28;20052;-68
2021/10/12 02:52:48;;;;;;;6.32;4.35;;;;;;;9.11;94.32;102156.06;2105418;28;20031;-69
2021/10/12 02:53:48;;;;;;;11.13;6.40;;;;;;;9.11;94.56;102145.66;2105539;28;20381;-67
2021/10/12 02:54:48;;;;;;;7.30;3.57;;;;;;;9.11;94.61;102149.09;2105454;28;20090;-68
2021/10/12 02:55:48;;;;;;;9.20;4.93;;;;;;;9.12;94.64;102152.56;2106085;28;20293;-66
2021/10/12 02:56:49;;;;;;;6.90;3.40;;;;;;;9.13;94.78;102154.28;2106155;28;20036;-68
2021/10/12 02:57:49;;;;;;;13.70;3.77;;;;;;;9.13;94.79;102151.69;2106069;28;20024;-67
2021/10/12 02:58:49;;;;;;;12.50;4.60;;;;;;;9.13;94.63;102149.94;2106305;28;20067;-66
2021/10/12 02:59:50;;;;;;;10.63;2.70;;;;;;;9.13;94.69;102151.69;2106046;28;20036;-68
2021/10/12 03:00:50;;;;;;;13.37;4.13;;;;;;;9.14;94.56;102156.03;2106085;28;20024;-67
2021/10/12 03:01:50;;;;;;;6.67;3.30;;;;;;;9.13;95.29;102154.28;2106742;28;20042;-67
2021/10/12 03:02:50;;;;;;;13.53;5.30;;;;;;;9.11;95.18;102154.31;2107074;28;20024;-67
2021/10/12 03:03:51;;;;;;;9.57;4.27;;;;;;;9.11;95.68;102150.88;2107351;28;20020;-67
2021/10/12 03:04:51;;;;;;;4.97;2.53;;;;;;;9.08;95.19;102148.28;2108069;28;20495;-68
2021/10/12 03:05:51;;;;;;;6.07;3.13;;;;;;;9.09;95.57;102152.63;2107991;28;20077;-68
2021/10/12 03:06:52;;;;;;;6.03;3.23;;;;;;;9.08;95.63;102150.91;2107007;28;20024;-67
2021/10/12 03:07:52;;;;;;;15.27;6.40;;;;;;;9.08;96.08;102153.50;2098954;28;20278;-68
2021/10/12 03:08:52;;;;;;;11.33;4.57;;;;;;;9.05;96.35;102140.53;2107134;28;20052;-69
2021/10/12 03:09:52;;;;;;;9.93;3.27;;;;;;;9.04;96.15;102144.03;2098673;28;20009;-68
2021/10/12 03:10:53;;;;;;;10.70;4.80;;;;;;;9.05;96.64;102145.72;2107051;28;20028;-67
2021/10/12 03:11:54;;;;;;;7.38;5.10;;;;;;;9.01;96.69;102145.78;2107718;28;20445;-67
2021/10/12 03:12:54;;;;;;;9.30;5.23;;;;;;;9.01;96.57;102150.13;2107681;28;20115;-68
2021/10/12 03:13:54;;;;;;;9.50;4.73;;;;;;;9.00;97.10;102149.25;2107867;28;20085;-68
2021/10/12 03:14:55;;;;;;;8.53;5.30;;;;;;;8.99;97.16;102144.94;2108004;28;20056;-68
2021/10/12 03:15:55;;;;;;;6.23;4.17;;;;;;;8.97;97.02;102144.09;2107839;28;20373;-67
2021/10/12 03:16:55;;;;;;;9.87;5.10;;;;;;;8.98;97.08;102138.03;2107060;28;20129;-67
2021/10/12 03:17:55;;;;;;;8.77;4.90;;;;;;;8.99;97.06;102141.47;2107101;28;20099;-66
2021/10/12 03:18:56;;;;;;;11.77;3.93;;;;;;;8.95;97.59;102135.47;2107584;28;20034;-68
2021/10/12 03:19:56;;;;;;;12.17;4.57;;;;;;;8.95;97.11;102135.47;2107887;28;20035;-67
2021/10/12 03:20:56;;;;;;;7.87;4.90;;;;;;;8.97;97.76;102128.47;2107677;28;20036;-67
2021/10/12 03:22:00;;;;;;;6.30;4.32;;;;;;;8.97;97.59;102133.69;2107182;28;20399;-67
2021/10/12 03:23:00;;;;;;;12.45;4.28;;;;;;;8.94;97.49;102127.69;2107384;28;20529;-68
2021/10/12 03:24:00;;;;;;;5.83;4.87;;;;;;;8.94;97.78;102123.34;2107377;28;20031;-67
2021/10/12 03:25:01;;;;;;;9.27;4.93;;;;;;;8.93;98.08;102123.34;2107690;28;20016;-68
2021/10/12 03:26:02;;;;;;;9.30;5.13;;;;;;;8.93;98.00;102129.41;2107741;28;20103;-67
2021/10/12 03:27:02;;;;;;;9.73;4.88;;;;;;;8.90;98.47;102113.84;2107225;28;20343;-68
2021/10/12 03:28:02;;;;;;;14.80;4.50;;;;;;;8.91;98.89;102123.38;2098624;28;20542;-70
2021/10/12 03:29:04;;;;;;;11.57;4.10;;;;;;;8.92;98.71;102122.50;2106988;28;20024;-68
2021/10/12 03:30:06;;;;;;;5.90;4.03;;;;;;;8.91;98.90;102118.16;2106843;28;20484;-68
2021/10/12 03:31:06;;;;;;;;;;;;;;;8.92;98.55;102119.00;2107967;28;20024;-67
2021/10/12 03:32:07;;;;;;;15.85;4.88;;;;;;;8.89;98.52;102114.72;2107634;28;19914;-67
2021/10/12 03:33:07;;;;;;;7.32;4.60;;;;;;;8.89;98.94;102117.31;2106945;28;20157;-68
2021/10/12 03:34:07;;;;;;;14.30;4.60;;;;;;;8.87;99.23;102112.13;2106794;28;20478;-67
2021/10/12 03:35:08;;;;;;;11.43;5.07;;;;;;;8.87;98.76;102111.28;2107131;28;20063;-68
2021/10/12 03:36:17;;;;;;;11.60;5.10;;;;;;;8.86;98.97;102113.03;2107718;28;20480;-67
2021/10/12 03:37:17;;;;;;;11.18;5.63;;;;;;;8.84;99.19;102111.34;2107706;28;20428;-68
2021/10/12 03:38:18;;;;;;;7.33;3.83;;;;;;;8.85;98.97;102110.44;2107509;28;20024;-68
2021/10/12 03:39:18;;;;;;;10.47;5.23;;;;;;;8.83;98.94;102115.66;2107647;28;20028;-68
2021/10/12 03:40:19;;;;;;;7.03;3.80;;;;;;;8.84;98.96;102116.53;2107705;28;20044;-68
2021/10/12 03:41:19;;;;;;;9.85;3.47;;;;;;;8.81;99.66;102111.38;2107566;28;20039;-68
2021/10/12 03:42:19;;;;;;;11.17;3.00;;;;;;;8.80;99.38;102099.25;2107897;28;20028;-69
2021/10/12 03:43:20;;;;;;;7.13;2.97;;;;;;;8.81;99.26;102106.16;2107555;28;20020;-67
2021/10/12 03:44:22;;;;;;;8.43;4.40;;;;;;;8.80;99.41;102094.03;2106959;28;20047;-67
2021/10/12 03:45:22;;;;;;;9.45;3.53;;;;;;;8.80;99.45;102094.03;2106878;28;20027;-67
2021/10/12 03:46:22;;;;;;;7.20;2.90;;;;;;;8.79;98.95;102092.31;2107704;28;20020;-67
2021/10/12 03:47:23;;;;;;;11.13;4.57;;;;;;;8.79;99.21;102089.72;2107371;28;20480;-68
2021/10/12 03:48:23;;;;;;;8.93;4.83;;;;;;;8.79;99.28;102089.72;2107491;28;20044;-67
2021/10/12 03:49:23;;;;;;;7.80;3.43;;;;;;;8.79;99.38;102079.31;2106667;28;20027;-67
2021/10/12 03:50:24;;;;;;;7.47;2.83;;;;;;;8.79;99.35;102076.72;2106857;28;20020;-67
2021/10/12 03:51:24;;;;;;;8.97;4.60;;;;;;;8.79;99.97;102071.50;2107387;28;20016;-67
2021/10/12 03:52:24;;;;;;;7.37;3.60;;;;;;;8.79;99.64;102072.34;2107539;28;20020;-70
2021/10/12 03:53:24;;;;;;;7.50;3.47;;;;;;;8.80;99.55;102063.69;2106696;28;20020;-68
2021/10/12 03:54:25;;;;;;;7.93;5.30;;;;;;;8.81;99.95;102059.31;2106971;28;20024;-68
2021/10/12 03:55:25;;;;;;;8.50;4.60;;;;;;;8.81;99.89;102059.31;2107524;28;20023;-68
2021/10/12 03:56:25;;;;;;;7.00;5.07;;;;;;;8.81;99.83;102054.09;2107400;28;20082;-68
2021/10/12 03:57:26;;;;;;;8.83;3.77;;;;;;;8.80;99.79;102057.59;2107250;28;20405;-68
2021/10/12 03:58:26;;;;;;;9.50;2.83;;;;;;;8.81;99.95;102069.72;2107581;28;20047;-67
2021/10/12 03:59:26;;;;;;;6.63;3.67;;;;;;;8.81;99.91;102073.19;2107301;28;20023;-67
2021/10/12 04:00:26;;;;;;;10.53;3.93;;;;;;;8.81;100.00;102070.59;2106827;28;20110;-67
2021/10/12 04:01:27;;;;;;;5.13;4.63;;;;;;;8.82;100.00;102068.84;2106831;28;20451;-66
2021/10/12 04:02:27;;;;;;;8.10;4.57;;;;;;;8.84;99.96;102069.69;2107430;28;20020;-67
2021/10/12 04:03:27;;;;;;;6.87;4.60;;;;;;;8.84;99.92;102074.88;2107464;28;20465;-67
2021/10/12 04:04:28;;;;;;;12.03;3.90;;;;;;;8.84;100.00;102061.88;2106591;28;20081;-67
2021/10/12 04:05:28;;;;;;;4.97;3.23;;;;;;;8.84;100.00;102065.34;2106699;28;20036;-67
2021/10/12 04:06:28;;;;;;;5.80;3.07;;;;;;;8.83;100.00;102060.16;2107338;28;20050;-67
2021/10/12 04:07:29;;;;;;;10.03;3.90;;;;;;;8.84;99.60;102054.94;2107200;28;20028;-67
2021/10/12 04:08:30;;;;;;;6.57;4.30;;;;;;;8.85;100.00;102055.78;2106734;28;20501;-69
2021/10/12 04:09:31;;;;;;;7.05;3.78;;;;;;;8.87;100.00;102054.03;2106645;28;20016;-67
2021/10/12 04:10:31;;;;;;;8.50;4.45;;;;;;;8.87;99.93;102048.81;2107211;28;20366;-67
2021/10/12 04:11:31;;;;;;;9.20;4.33;;;;;;;8.88;99.96;102047.91;2107608;28;20457;-67
2021/10/12 04:12:32;;;;;;;7.50;4.37;;;;;;;8.91;100.00;102054.81;2107592;28;20362;-67
2021/10/12 04:13:32;;;;;;;8.70;4.53;;;;;;;8.91;100.00;102050.47;2106089;28;20028;-66
2021/10/12 04:14:32;;;;;;;6.90;2.50;;;;;;;8.91;100.00;102049.63;2106695;28;20392;-68
2021/10/12 04:15:34;;;;;;;11.00;4.07;;;;;;;8.91;99.73;102049.63;2107278;28;20068;-69
2021/10/12 04:16:35;;;;;;;10.43;3.90;;;;;;;8.90;100.00;102048.78;2106571;28;20169;-67
2021/10/12 04:17:35;;;;;;;6.70;4.03;;;;;;;8.90;100.00;102043.56;2106919;28;20046;-68
2021/10/12 04:18:36;;;;;;;5.00;4.30;;;;;;;8.89;100.00;102052.25;2106819;28;20104;-68
2021/10/12 04:19:36;;;;;;;10.27;4.47;;;;;;;8.89;100.00;102047.03;2106687;28;20028;-68
2021/10/12 04:20:37;;;;;;;5.33;3.73;;;;;;;8.90;100.00;102048.78;2107237;28;20024;-68
2021/10/12 04:21:37;;;;;;;6.10;3.47;;;;;;;8.90;100.00;102048.78;2107178;28;20020;-68
2021/10/12 04:22:37;;;;;;;5.03;2.50;;;;;;;8.91;100.00;102042.66;2107301;28;20020;-67
2021/10/12 04:23:38;;;;;;;6.83;2.87;;;;;;;8.92;100.00;102035.69;2107324;28;20469;-66
2021/10/12 04:24:39;;;;;;;8.13;2.20;;;;;;;8.93;100.00;102040.88;2107297;28;20108;-68
2021/10/12 04:25:41;;;;;;;10.68;3.55;;;;;;;8.93;100.00;102035.69;2107326;28;20024;-68
2021/10/12 04:26:41;;;;;;;9.77;3.70;;;;;;;8.94;100.00;102040.03;2107105;28;20431;-67
2021/10/12 04:27:41;;;;;;;10.87;4.90;;;;;;;8.94;100.00;102040.03;2107276;28;20016;-67
2021/10/12 04:28:42;;;;;;;10.50;2.50;;;;;;;8.95;100.00;102035.66;2107256;28;20369;-68
2021/10/12 04:29:42;;;;;;;7.70;3.80;;;;;;;8.94;100.00;102029.63;2106441;28;20032;-67
2021/10/12 04:30:45;;;;;;;12.13;2.83;;;;;;;8.96;100.00;102034.78;2106708;28;20024;-67
2021/10/12 04:31:45;;;;;;;11.20;2.83;;;;;;;8.95;100.00;102039.13;2106973;28;20103;-67
2021/10/12 04:32:45;;;;;;;9.70;2.33;;;;;;;8.94;100.00;102040.03;2107467;28;20032;-69
2021/10/12 04:33:46;;;;;;;10.60;3.97;;;;;;;8.97;100.00;102049.53;2106293;28;20067;-68
2021/10/12 04:34:46;;;;;;;8.27;4.73;;;;;;;8.97;100.00;102050.38;2106451;28;20016;-66
2021/10/12 04:35:46;;;;;;;13.73;3.30;;;;;;;8.95;100.00;102044.34;2106471;28;20042;-68
2021/10/12 04:36:47;;;;;;;7.10;3.73;;;;;;;8.93;100.00;102048.69;2097984;28;20017;-68
2021/10/12 04:37:47;;;;;;;7.50;5.43;;;;;;;8.95;100.00;102038.25;2106830;28;20440;-68
2021/10/12 04:38:47;;;;;;;11.70;4.83;;;;;;;8.95;100.00;102041.72;2107475;28;20285;-67
2021/10/12 04:39:48;;;;;;;12.47;4.73;;;;;;;8.95;100.00;102039.13;2106527;28;20032;-68
2021/10/12 04:40:48;;;;;;;8.00;3.67;;;;;;;8.96;100.00;102040.00;2106366;28;20036;-68
2021/10/12 04:41:52;;;;;;;5.93;5.07;;;;;;;8.95;100.00;102046.06;2107467;28;20500;-67
2021/10/12 04:42:52;;;;;;;6.40;4.70;;;;;;;8.93;100.00;102046.09;2107577;28;20077;-67
2021/10/12 04:43:52;;;;;;;10.50;4.60;;;;;;;8.95;100.00;102035.66;2107447;28;20442;-68